Time;durP1;ratioP1;P1;durP2;ratioP2;P2;SDS_P1;SDS_P2;PMS_P1;PMS_P2;Temp;Humidity;BMP_temperature;BMP_pressure;BME280_temperature;BME280_humidity;BME280_pressure;Samples;Min_cycle;Max_cycle;Signal;HPM_P1;HPM_P2
2021/07/31 00:00:33;;;;;;;11.93;7.90;;;22.10;99.90;;;;;;4919986;29;20524;-77
2021/07/31 00:03:00;;;;;;;9.63;7.80;;;22.10;99.90;;;;;;4919992;29;20469;-76
2021/07/31 00:05:27;;;;;;;12.53;7.93;;;22.00;99.90;;;;;;4919085;29;20476;-75
2021/07/31 00:07:53;;;;;;;8.90;7.50;;;22.00;99.90;;;;;;4919434;29;20492;-75
2021/07/31 00:10:20;;;;;;;10.60;7.60;;;22.00;99.90;;;;;;4919506;29;20472;-75
2021/07/31 00:12:48;;;;;;;10.30;8.73;;;21.90;99.90;;;;;;4919481;29;20492;-76
2021/07/31 00:15:15;;;;;;;10.67;9.00;;;21.90;99.90;;;;;;4919868;29;20450;-75
2021/07/31 00:17:42;;;;;;;10.30;8.10;;;21.90;99.90;;;;;;4921341;29;20484;-73
2021/07/31 00:20:09;;;;;;;9.43;8.00;;;21.90;99.90;;;;;;4921272;29;20473;-73
2021/07/31 00:22:35;;;;;;;9.30;7.73;;;21.80;99.90;;;;;;4921339;29;20462;-73
2021/07/31 00:25:02;;;;;;;8.63;6.97;;;21.80;99.90;;;;;;4921430;29;20802;-72
2021/07/31 00:27:29;;;;;;;15.53;7.50;;;21.80;99.90;;;;;;4921060;29;20489;-73
2021/07/31 00:29:57;;;;;;;8.63;7.57;;;21.70;99.90;;;;;;4921424;29;20476;-73
2021/07/31 00:32:24;;;;;;;8.00;6.70;;;21.70;99.90;;;;;;4921744;29;20469;-73
2021/07/31 00:34:50;;;;;;;8.43;7.03;;;21.60;99.90;;;;;;4921031;29;20457;-74
2021/07/31 00:37:17;;;;;;;8.47;6.67;;;21.60;99.90;;;;;;4921455;29;20458;-74
2021/07/31 00:39:44;;;;;;;7.63;5.90;;;21.60;99.90;;;;;;4920936;29;20465;-74
2021/07/31 00:42:11;;;;;;;6.10;5.50;;;21.60;99.90;;;;;;4920889;29;20469;-73
2021/07/31 00:44:38;;;;;;;6.70;5.77;;;21.60;99.90;;;;;;4920827;29;20948;-74
2021/07/31 00:47:06;;;;;;;7.37;6.40;;;21.60;99.90;;;;;;4920899;29;20490;-74
2021/07/31 00:49:34;;;;;;;6.77;5.90;;;21.60;99.90;;;;;;4920982;29;20933;-76
2021/07/31 00:52:02;;;;;;;8.30;5.60;;;21.50;99.90;;;;;;4921400;29;20536;-76
2021/07/31 00:54:29;;;;;;;5.40;4.90;;;21.50;99.90;;;;;;4921276;29;20476;-76
2021/07/31 00:56:57;;;;;;;6.93;5.50;;;21.50;99.90;;;;;;4920694;29;20918;-76
2021/07/31 00:59:24;;;;;;;9.50;5.83;;;21.40;99.90;;;;;;4921043;29;20473;-76
2021/07/31 01:01:50;;;;;;;6.63;5.50;;;21.40;99.90;;;;;;4926982;29;20540;-76
2021/07/31 01:04:18;;;;;;;6.37;5.60;;;21.30;99.90;;;;;;4922895;29;20529;-76
2021/07/31 01:06:45;;;;;;;7.70;5.50;;;21.30;99.90;;;;;;4920934;29;20465;-76
2021/07/31 01:09:13;;;;;;;5.27;4.37;;;21.30;99.90;;;;;;4919951;29;20485;-74
2021/07/31 01:11:40;;;;;;;7.50;4.53;;;21.20;99.90;;;;;;4919032;29;20818;-73
2021/07/31 01:14:07;;;;;;;8.03;4.50;;;21.20;99.90;;;;;;4918622;29;20493;-74
2021/07/31 01:16:34;;;;;;;6.27;4.73;;;21.20;99.90;;;;;;4917978;29;20520;-74
2021/07/31 01:19:01;;;;;;;7.10;4.03;;;21.10;99.90;;;;;;4919648;29;20457;-74
2021/07/31 01:21:41;;;;;;;5.23;4.73;;;21.10;99.90;;;;;;4919180;29;20473;-74
2021/07/31 01:24:09;;;;;;;6.53;4.63;;;21.10;99.90;;;;;;4919282;29;20460;-74
2021/07/31 01:26:40;;;;;;;4.60;4.07;;;21.10;99.90;;;;;;4924468;29;20804;-74
2021/07/31 01:29:08;;;;;;;5.60;4.80;;;21.10;99.90;;;;;;4921722;29;20482;-74
2021/07/31 01:31:36;;;;;;;4.70;4.30;;;21.10;99.90;;;;;;4920324;29;20469;-74
2021/07/31 01:34:04;;;;;;;9.20;4.10;;;21.10;99.90;;;;;;4920579;29;20461;-73
2021/07/31 01:36:31;;;;;;;4.50;3.77;;;21.10;99.90;;;;;;4919068;29;20533;-73
2021/07/31 01:39:00;;;;;;;4.17;3.70;;;21.10;99.90;;;;;;4918331;29;20470;-74
2021/07/31 01:41:27;;;;;;;5.63;4.40;;;21.20;99.90;;;;;;4918630;29;20461;-74
2021/07/31 01:43:54;;;;;;;3.90;3.60;;;21.10;99.90;;;;;;4918738;29;20515;-74
2021/07/31 01:46:22;;;;;;;6.07;4.60;;;21.20;99.90;;;;;;4918816;29;20480;-74
2021/07/31 01:48:49;;;;;;;6.50;4.17;;;21.30;99.90;;;;;;4918442;29;20484;-74
2021/07/31 01:51:16;;;;;;;4.43;4.03;;;21.30;99.90;;;;;;4918715;29;20499;-74
2021/07/31 01:53:43;;;;;;;7.00;4.30;;;21.30;99.90;;;;;;4918506;29;20465;-74
2021/07/31 01:56:11;;;;;;;4.53;4.13;;;21.30;99.90;;;;;;4918883;29;20479;-74
2021/07/31 01:58:38;;;;;;;4.70;4.30;;;21.20;99.90;;;;;;4918549;29;20458;-74
2021/07/31 02:01:05;;;;;;;4.90;3.50;;;21.20;99.90;;;;;;4918753;29;20465;-74
2021/07/31 02:03:32;;;;;;;4.23;3.83;;;21.20;99.90;;;;;;4919610;29;20461;-74
2021/07/31 02:05:58;;;;;;;4.57;4.17;;;21.10;99.90;;;;;;4919752;29;20465;-74
2021/07/31 02:08:25;;;;;;;6.30;3.77;;;21.10;99.90;;;;;;4920075;29;20485;-73
2021/07/31 02:10:52;;;;;;;4.43;4.03;;;21.10;99.90;;;;;;4919521;29;20477;-76
2021/07/31 02:13:20;;;;;;;6.20;4.17;;;21.10;99.90;;;;;;4918086;29;20485;-76
2021/07/31 02:15:47;;;;;;;4.33;3.93;;;21.00;99.90;;;;;;4918385;29;20540;-76
2021/07/31 02:18:14;;;;;;;5.40;3.30;;;21.00;99.90;;;;;;4918538;29;20465;-78
2021/07/31 02:20:41;;;;;;;6.50;4.10;;;21.00;99.90;;;;;;4918623;29;20469;-76
2021/07/31 02:23:08;;;;;;;5.43;3.80;;;21.00;99.90;;;;;;4918258;29;20462;-76
2021/07/31 02:25:35;;;;;;;4.30;3.90;;;21.00;99.90;;;;;;4917916;29;20917;-76
2021/07/31 02:28:01;;;;;;;4.53;3.80;;;21.00;99.90;;;;;;4921910;29;20485;-76
2021/07/31 02:30:30;;;;;;;6.40;4.57;;;20.90;99.90;;;;;;4921493;29;20472;-76
2021/07/31 02:32:56;;;;;;;3.90;3.50;;;21.00;99.90;;;;;;4921738;29;20467;-75
2021/07/31 02:35:23;;;;;;;4.37;3.93;;;21.00;99.90;;;;;;4921335;29;20922;-71
2021/07/31 02:37:50;;;;;;;4.33;3.73;;;21.00;99.90;;;;;;4921519;29;20461;-75
2021/07/31 02:40:17;;;;;;;4.50;4.10;;;20.90;99.90;;;;;;4921213;29;20484;-73
2021/07/31 02:42:43;;;;;;;3.87;3.27;;;20.90;99.90;;;;;;4921058;29;20472;-74
2021/07/31 02:45:10;;;;;;;6.27;4.03;;;20.80;99.90;;;;;;4921116;29;20462;-75
2021/07/31 02:47:38;;;;;;;5.67;3.83;;;20.80;99.90;;;;;;4921208;29;20488;-75
2021/07/31 02:50:08;;;;;;;11.50;3.60;;;20.80;99.90;;;;;;4921120;29;20458;-75
2021/07/31 02:52:35;;;;;;;5.40;3.97;;;20.70;99.90;;;;;;4920953;29;20489;-75
2021/07/31 02:55:03;;;;;;;5.80;3.27;;;20.60;99.90;;;;;;4920802;29;20465;-76
2021/07/31 02:57:30;;;;;;;8.43;4.33;;;20.60;99.90;;;;;;4921382;29;20461;-76
2021/07/31 02:59:57;;;;;;;4.27;3.87;;;20.60;99.90;;;;;;4920944;29;20495;-76
2021/07/31 03:02:25;;;;;;;3.27;2.97;;;20.50;99.90;;;;;;4920891;29;20791;-77
2021/07/31 03:04:53;;;;;;;6.00;3.80;;;20.50;99.90;;;;;;4920777;29;20482;-76
2021/07/31 03:07:20;;;;;;;4.73;3.63;;;20.50;99.90;;;;;;4920771;29;20469;-76
2021/07/31 03:09:47;;;;;;;4.43;3.80;;;20.50;99.90;;;;;;4920715;29;20861;-76
2021/07/31 03:12:14;;;;;;;3.50;3.20;;;20.40;99.90;;;;;;4920389;29;20480;-76
2021/07/31 03:14:42;;;;;;;11.77;3.87;;;20.40;99.90;;;;;;4920314;29;20494;-76
2021/07/31 03:17:09;;;;;;;3.57;3.27;;;20.30;99.90;;;;;;4920951;29;20560;-75
2021/07/31 03:19:36;;;;;;;4.30;3.03;;;20.30;99.90;;;;;;4920710;29;20457;-74
2021/07/31 03:22:05;;;;;;;5.87;3.37;;;20.20;99.90;;;;;;4920799;29;20461;-74
2021/07/31 03:24:32;;;;;;;4.43;2.73;;;20.20;99.90;;;;;;4920783;29;20476;-76
2021/07/31 03:26:58;;;;;;;4.70;3.27;;;20.20;99.90;;;;;;4920484;29;20803;-75
2021/07/31 03:29:25;;;;;;;4.23;2.80;;;20.10;99.90;;;;;;4920218;29;20493;-75
2021/07/31 03:31:52;;;;;;;4.63;3.03;;;20.10;99.90;;;;;;4920383;29;20465;-75
2021/07/31 03:34:21;;;;;;;3.63;2.80;;;20.10;99.90;;;;;;4920316;29;20462;-75
2021/07/31 03:36:51;;;;;;;3.70;3.07;;;20.10;99.90;;;;;;4919998;29;20477;-74
2021/07/31 03:39:20;;;;;;;3.40;3.10;;;20.10;99.90;;;;;;4919548;29;20513;-74
2021/07/31 03:41:47;;;;;;;3.27;2.50;;;20.10;99.90;;;;;;4920178;29;20480;-73
2021/07/31 03:44:14;;;;;;;3.40;3.10;;;20.10;99.90;;;;;;4920043;29;20831;-74
2021/07/31 03:46:43;;;;;;;3.87;3.10;;;20.10;99.90;;;;;;4920005;29;20470;-74
2021/07/31 03:49:10;;;;;;;5.17;2.73;;;20.00;99.90;;;;;;4920279;29;20569;-74
2021/07/31 03:51:37;;;;;;;4.20;2.80;;;20.00;99.90;;;;;;4919796;29;20461;-74
2021/07/31 03:54:03;;;;;;;4.37;2.70;;;19.90;99.90;;;;;;4920168;29;20476;-74
2021/07/31 03:56:31;;;;;;;3.00;2.50;;;19.90;99.90;;;;;;4920064;29;20465;-74
2021/07/31 03:58:58;;;;;;;3.10;2.80;;;19.80;99.90;;;;;;4919939;29;20466;-74
2021/07/31 04:01:26;;;;;;;2.67;2.30;;;19.80;99.90;;;;;;4919950;29;20471;-74
2021/07/31 04:03:53;;;;;;;6.50;2.47;;;19.80;99.90;;;;;;4919843;29;20469;-74
2021/07/31 04:06:20;;;;;;;3.10;2.67;;;19.80;99.90;;;;;;4919558;29;20485;-75
2021/07/31 04:08:47;;;;;;;2.77;2.43;;;19.70;99.90;;;;;;4919487;29;20489;-74
2021/07/31 04:11:14;;;;;;;10.53;2.40;;;19.70;99.90;;;;;;4919443;29;20473;-74
2021/07/31 04:13:42;;;;;;;2.80;2.60;;;19.70;99.90;;;;;;4919428;29;20493;-74
2021/07/31 04:16:08;;;;;;;4.20;2.67;;;19.70;99.90;;;;;;4919653;29;20466;-75
2021/07/31 04:18:35;;;;;;;2.73;2.50;;;19.70;99.90;;;;;;4919611;29;20461;-75
2021/07/31 04:21:05;;;;;;;3.03;2.63;;;19.70;99.90;;;;;;4919467;29;20795;-75
2021/07/31 04:23:32;;;;;;;2.73;2.30;;;19.70;99.90;;;;;;4919544;29;20470;-74
2021/07/31 04:25:59;;;;;;;3.50;2.17;;;19.70;99.90;;;;;;4919494;29;20477;-74
2021/07/31 04:28:25;;;;;;;3.33;2.50;;;19.70;99.90;;;;;;4919446;29;20492;-74
2021/07/31 04:30:53;;;;;;;3.03;2.73;;;19.70;99.90;;;;;;4919200;29;20461;-77
2021/07/31 04:33:20;;;;;;;3.37;2.20;;;19.60;99.90;;;;;;4919334;29;20474;-77
2021/07/31 04:35:47;;;;;;;2.77;2.57;;;19.60;99.90;;;;;;4919104;29;20476;-77
2021/07/31 04:38:14;;;;;;;6.87;2.30;;;19.60;99.90;;;;;;4919337;29;20462;-77
2021/07/31 04:40:40;;;;;;;2.73;2.07;;;19.60;99.90;;;;;;4919022;29;20916;-75
2021/07/31 04:43:07;;;;;;;3.10;2.50;;;19.60;99.90;;;;;;4919593;29;20465;-75
2021/07/31 04:45:34;;;;;;;2.63;2.00;;;19.50;99.90;;;;;;4919747;29;20484;-77
2021/07/31 04:48:02;;;;;;;2.37;2.03;;;19.50;99.90;;;;;;4919186;29;20799;-76
2021/07/31 04:50:29;;;;;;;3.57;2.30;;;19.60;99.90;;;;;;4919272;29;20549;-76
2021/07/31 04:52:56;;;;;;;5.47;2.33;;;19.60;99.90;;;;;;4919047;29;20465;-76
2021/07/31 04:55:22;;;;;;;2.27;1.70;;;19.60;99.90;;;;;;4918818;29;20476;-76
2021/07/31 04:57:49;;;;;;;3.23;2.00;;;19.60;99.90;;;;;;4918969;29;20544;-76
2021/07/31 05:00:16;;;;;;;1.73;1.60;;;19.60;99.90;;;;;;4919080;29;20469;-76
2021/07/31 05:02:43;;;;;;;3.07;2.00;;;19.60;99.90;;;;;;4918706;29;20466;-77
2021/07/31 05:05:12;;;;;;;2.13;1.90;;;19.60;99.90;;;;;;4918806;29;20469;-76
2021/07/31 05:07:39;;;;;;;2.63;1.70;;;19.70;99.90;;;;;;4918958;29;20481;-76
2021/07/31 05:10:07;;;;;;;4.30;1.70;;;19.70;99.90;;;;;;4918645;29;20568;-77
2021/07/31 05:12:34;;;;;;;1.97;1.80;;;19.70;99.90;;;;;;4918741;29;20461;-77
2021/07/31 05:15:01;;;;;;;4.07;2.10;;;19.80;99.90;;;;;;4919758;29;20902;-77
2021/07/31 05:17:27;;;;;;;3.50;1.70;;;19.80;99.90;;;;;;4919397;29;20469;-77
2021/07/31 05:19:54;;;;;;;6.40;2.10;;;19.80;99.90;;;;;;4921659;29;20457;-77
2021/07/31 05:22:22;;;;;;;2.53;1.83;;;19.80;99.90;;;;;;4921498;29;20926;-76
2021/07/31 05:24:53;;;;;;;5.43;1.70;;;19.90;99.90;;;;;;4921566;29;20465;-78
2021/07/31 05:27:20;;;;;;;2.67;1.50;;;20.00;99.90;;;;;;4919812;29;20449;-76
2021/07/31 05:29:47;;;;;;;2.13;1.57;;;20.00;99.90;;;;;;4920092;29;20512;-76
2021/07/31 05:32:13;;;;;;;2.90;2.07;;;20.00;99.90;;;;;;4920135;29;20480;-75
2021/07/31 05:34:40;;;;;;;2.80;1.83;;;20.00;99.90;;;;;;4918225;29;20461;-75
2021/07/31 05:37:07;;;;;;;2.33;1.70;;;20.00;99.90;;;;;;4918519;29;20493;-75
2021/07/31 05:39:35;;;;;;;3.63;1.97;;;19.90;99.90;;;;;;4918705;29;20462;-76
2021/07/31 05:42:05;;;;;;;2.63;1.60;;;19.90;99.90;;;;;;4918798;29;20466;-75
2021/07/31 05:44:32;;;;;;;4.27;1.83;;;19.90;99.90;;;;;;4918409;29;20849;-75
2021/07/31 05:46:58;;;;;;;2.83;1.83;;;20.00;99.90;;;;;;4918688;29;20469;-75
2021/07/31 05:49:25;;;;;;;1.50;1.40;;;19.90;99.90;;;;;;4920643;29;20812;-75
2021/07/31 05:51:52;;;;;;;1.93;1.60;;;20.00;99.90;;;;;;4919865;29;20473;-75
2021/07/31 05:54:19;;;;;;;2.20;2.00;;;20.00;99.90;;;;;;4918068;29;20476;-75
2021/07/31 05:56:49;;;;;;;3.10;1.63;;;19.90;99.90;;;;;;4918464;29;20931;-75
2021/07/31 05:59:16;;;;;;;3.43;1.57;;;19.90;99.90;;;;;;4918333;29;20786;-75
2021/07/31 06:01:43;;;;;;;2.97;1.53;;;19.90;99.90;;;;;;4918449;29;20470;-75
2021/07/31 06:04:09;;;;;;;1.40;1.17;;;20.00;99.90;;;;;;4921610;29;20918;-75
2021/07/31 06:06:36;;;;;;;5.20;1.20;;;20.00;99.90;;;;;;4921785;29;20476;-75
2021/07/31 06:09:03;;;;;;;1.70;1.43;;;20.10;99.90;;;;;;4921433;29;20484;-74
2021/07/31 06:11:30;;;;;;;6.17;1.50;;;20.10;99.90;;;;;;4921868;29;20794;-76
2021/07/31 06:13:58;;;;;;;2.30;1.57;;;20.20;99.90;;;;;;4921619;29;20493;-76
2021/07/31 06:16:25;;;;;;;1.70;1.17;;;20.20;99.90;;;;;;4922170;29;20922;-76
2021/07/31 06:18:51;;;;;;;2.47;1.40;;;20.20;99.90;;;;;;4921806;29;20780;-76
2021/07/31 06:21:18;;;;;;;3.00;1.43;;;20.20;99.90;;;;;;4922119;29;20468;-77
2021/07/31 06:23:45;;;;;;;4.47;1.60;;;20.20;99.90;;;;;;4921643;29;20472;-76
2021/07/31 06:26:12;;;;;;;3.67;1.10;;;20.20;99.90;;;;;;4923043;29;20476;-76
2021/07/31 06:28:45;;;;;;;2.37;1.20;;;20.30;99.90;;;;;;4922308;29;20465;-76
2021/07/31 06:31:13;;;;;;;1.60;1.30;;;20.30;99.90;;;;;;4924819;29;20489;-76
2021/07/31 06:33:40;;;;;;;2.23;1.30;;;20.20;99.90;;;;;;4924855;29;20468;-75
2021/07/31 06:36:07;;;;;;;2.53;1.00;;;20.20;99.90;;;;;;4925571;29;20461;-75
2021/07/31 06:38:33;;;;;;;4.43;1.73;;;20.20;99.90;;;;;;4925287;29;20476;-76
2021/07/31 06:41:00;;;;;;;3.00;1.73;;;20.30;99.90;;;;;;4925578;29;20528;-75
2021/07/31 06:43:27;;;;;;;2.40;1.20;;;20.30;99.90;;;;;;4923657;29;20524;-77
2021/07/31 06:45:54;;;;;;;2.07;1.30;;;20.40;99.90;;;;;;4922582;29;20980;-77
2021/07/31 06:48:22;;;;;;;3.43;1.30;;;20.50;99.90;;;;;;4921567;29;20490;-76
2021/07/31 06:50:49;;;;;;;7.73;1.30;;;20.60;99.90;;;;;;4921376;29;20977;-77
2021/07/31 06:53:16;;;;;;;2.23;1.20;;;20.60;99.90;;;;;;4922098;29;20465;-77
2021/07/31 06:55:42;;;;;;;2.27;1.20;;;20.70;99.90;;;;;;4922623;29;20458;-76
2021/07/31 06:58:09;;;;;;;2.97;1.03;;;20.70;99.90;;;;;;4924862;29;20915;-77
2021/07/31 07:00:38;;;;;;;3.37;1.33;;;20.70;99.90;;;;;;4927287;29;20472;-77
2021/07/31 07:03:04;;;;;;;2.00;1.10;;;20.80;99.90;;;;;;4926758;29;20489;-76
2021/07/31 07:05:34;;;;;;;2.27;1.20;;;20.80;99.90;;;;;;4927324;29;20462;-76
2021/07/31 07:08:01;;;;;;;2.60;1.00;;;20.90;99.90;;;;;;4923864;29;20484;-75
2021/07/31 07:10:27;;;;;;;4.40;1.17;;;21.00;99.90;;;;;;4923828;29;20485;-77
2021/07/31 07:12:54;;;;;;;1.93;1.50;;;21.00;99.90;;;;;;4922893;29;20499;-78
2021/07/31 07:15:21;;;;;;;1.93;1.07;;;21.00;99.90;;;;;;4921694;29;20792;-76
2021/07/31 07:17:47;;;;;;;5.60;1.17;;;21.10;99.90;;;;;;4925298;29;20461;-78
2021/07/31 07:20:14;;;;;;;3.30;1.20;;;21.20;99.90;;;;;;4925246;29;20476;-78
2021/07/31 07:22:42;;;;;;;1.53;1.10;;;21.30;99.90;;;;;;4922778;29;20472;-78
2021/07/31 07:25:10;;;;;;;1.20;1.00;;;21.30;99.90;;;;;;4922018;29;20469;-77
2021/07/31 07:27:37;;;;;;;2.20;1.30;;;21.30;99.90;;;;;;4921544;29;20525;-75
2021/07/31 07:30:04;;;;;;;1.53;1.20;;;21.40;99.90;;;;;;4921365;29;20500;-76
2021/07/31 07:32:31;;;;;;;2.07;1.37;;;21.40;99.90;;;;;;4920837;29;20466;-76
2021/07/31 07:34:57;;;;;;;3.43;1.23;;;21.40;99.90;;;;;;4920999;29;20545;-75
2021/07/31 07:37:24;;;;;;;6.17;1.40;;;21.40;99.90;;;;;;4920816;29;20473;-76
2021/07/31 07:39:52;;;;;;;2.07;1.27;;;21.40;99.90;;;;;;4922420;29;20790;-75
2021/07/31 07:42:19;;;;;;;2.53;1.30;;;21.40;99.90;;;;;;4925786;29;20465;-77
2021/07/31 07:44:46;;;;;;;2.47;1.00;;;21.40;99.90;;;;;;4926462;29;20532;-75
2021/07/31 07:47:12;;;;;;;2.07;1.40;;;21.40;99.90;;;;;;4922674;29;20458;-76
2021/07/31 07:49:39;;;;;;;4.63;1.40;;;21.50;99.90;;;;;;4922255;29;20492;-75
2021/07/31 07:52:07;;;;;;;3.93;1.20;;;21.60;99.90;;;;;;4920006;29;20796;-74
2021/07/31 07:54:33;;;;;;;1.90;1.10;;;21.60;99.90;;;;;;4920777;29;20465;-76
2021/07/31 07:57:05;;;;;;;1.90;1.37;;;21.80;99.90;;;;;;4920161;29;20839;-76
2021/07/31 07:59:32;;;;;;;2.40;1.00;;;21.80;99.90;;;;;;4919808;29;20469;-75
2021/07/31 08:01:59;;;;;;;4.73;1.40;;;21.80;99.90;;;;;;4919966;29;20466;-74
2021/07/31 08:04:25;;;;;;;2.30;1.10;;;21.80;99.90;;;;;;4919482;29;20469;-73
2021/07/31 08:06:52;;;;;;;1.20;0.97;;;21.80;99.90;;;;;;4919902;29;20465;-74
2021/07/31 08:09:19;;;;;;;2.50;1.10;;;21.80;99.90;;;;;;4920877;29;20466;-74
2021/07/31 08:11:45;;;;;;;3.50;1.10;;;21.90;99.90;;;;;;4919515;29;20468;-75
2021/07/31 08:14:13;;;;;;;1.90;1.37;;;21.90;99.90;;;;;;4919245;29;20504;-76
2021/07/31 08:16:40;;;;;;;6.77;1.27;;;21.90;99.90;;;;;;4919148;29;20520;-76
2021/07/31 08:19:10;;;;;;;3.93;1.23;;;22.00;99.90;;;;;;4919410;29;20961;-75
2021/07/31 08:21:36;;;;;;;2.10;1.00;;;21.90;99.90;;;;;;4919551;29;20461;-74
2021/07/31 08:24:04;;;;;;;2.07;0.90;;;21.90;99.90;;;;;;4919339;29;20461;-75
2021/07/31 08:26:30;;;;;;;3.00;1.00;;;21.90;99.90;;;;;;4919232;29;20543;-75
2021/07/31 08:28:57;;;;;;;2.63;1.00;;;21.90;99.90;;;;;;4918994;29;20931;-74
2021/07/31 08:31:25;;;;;;;3.47;1.17;;;22.00;99.90;;;;;;4919376;29;20497;-75
2021/07/31 08:33:52;;;;;;;3.87;1.10;;;22.00;99.90;;;;;;4919021;29;20465;-75
2021/07/31 08:36:19;;;;;;;1.13;0.97;;;21.90;99.90;;;;;;4918926;29;21091;-74
2021/07/31 08:38:45;;;;;;;5.10;1.20;;;21.80;99.90;;;;;;4919419;29;20469;-75
2021/07/31 08:41:14;;;;;;;2.10;0.90;;;21.80;99.90;;;;;;4919101;29;20468;-74
2021/07/31 08:43:41;;;;;;;1.80;1.13;;;21.70;99.90;;;;;;4919129;29;20546;-76
2021/07/31 08:46:10;;;;;;;2.33;1.10;;;21.90;99.90;;;;;;4918861;29;20943;-74
2021/07/31 08:48:39;;;;;;;1.97;0.90;;;22.00;99.90;;;;;;4919321;29;20493;-75
2021/07/31 08:51:07;;;;;;;2.50;1.20;;;22.10;99.90;;;;;;4918906;29;20974;-74
2021/07/31 08:53:34;;;;;;;3.30;0.90;;;22.10;99.90;;;;;;4918754;29;20927;-73
2021/07/31 08:56:01;;;;;;;3.10;1.00;;;22.10;99.90;;;;;;4919182;29;20465;-74
2021/07/31 08:58:28;;;;;;;2.40;1.17;;;22.20;99.90;;;;;;4919635;29;20899;-75
2021/07/31 09:00:56;;;;;;;2.90;1.10;;;22.30;99.90;;;;;;4918837;29;20468;-73
2021/07/31 09:03:24;;;;;;;1.53;0.90;;;22.40;99.90;;;;;;4919221;29;20472;-75
2021/07/31 09:05:52;;;;;;;1.90;1.10;;;22.50;99.90;;;;;;4918850;29;20555;-75
2021/07/31 09:08:19;;;;;;;2.67;1.10;;;22.40;99.90;;;;;;4918329;29;20942;-73
2021/07/31 09:10:46;;;;;;;3.20;1.17;;;22.30;99.90;;;;;;4918491;29;20485;-74
2021/07/31 09:13:15;;;;;;;2.03;0.97;;;22.20;99.90;;;;;;4918638;29;20500;-75
2021/07/31 09:15:43;;;;;;;1.70;1.00;;;22.20;99.90;;;;;;4918533;29;20770;-74
2021/07/31 09:18:29;;;;;;;1.77;1.20;;;22.20;99.90;;;;;;4918890;29;20888;-75
2021/07/31 09:21:08;;;;;;;1.67;1.10;;;22.30;99.90;;;;;;4918364;29;20766;-75
2021/07/31 09:23:41;;;;;;;1.40;1.13;;;22.50;99.90;;;;;;4918484;29;20456;-74
2021/07/31 09:26:08;;;;;;;1.40;1.30;;;22.50;99.90;;;;;;4918336;29;20457;-75
2021/07/31 09:28:39;;;;;;;2.53;1.30;;;22.70;99.90;;;;;;4918106;29;20465;-75
2021/07/31 09:31:06;;;;;;;5.00;1.27;;;22.80;99.90;;;;;;4918919;29;20469;-74
2021/07/31 09:33:33;;;;;;;2.33;1.20;;;23.10;99.90;;;;;;4918228;29;20465;-75
2021/07/31 09:36:04;;;;;;;1.53;1.33;;;23.20;99.90;;;;;;4918386;29;20484;-75
2021/07/31 09:38:38;;;;;;;2.40;1.37;;;23.30;99.90;;;;;;4921592;29;20461;-76
2021/07/31 09:41:25;;;;;;;1.90;1.10;;;23.20;99.90;;;;;;4922280;29;20452;-75
2021/07/31 09:44:10;;;;;;;1.70;1.20;;;23.20;99.90;;;;;;4922427;29;20485;-75
2021/07/31 09:46:39;;;;;;;1.77;1.20;;;23.00;99.90;;;;;;4922718;29;20471;-75
2021/07/31 09:49:07;;;;;;;2.07;1.30;;;22.90;99.90;;;;;;4922500;29;20472;-75
2021/07/31 09:51:40;;;;;;;1.20;1.07;;;22.80;99.90;;;;;;4922064;29;20481;-75
2021/07/31 09:54:11;;;;;;;1.70;1.30;;;22.90;99.90;;;;;;4922256;29;20473;-75
2021/07/31 09:56:40;;;;;;;3.83;1.20;;;23.10;99.90;;;;;;4921785;29;20457;-75
2021/07/31 09:59:08;;;;;;;4.33;1.20;;;23.30;99.90;;;;;;4922242;29;20489;-75
2021/07/31 10:01:37;;;;;;;1.20;0.87;;;23.40;99.90;;;;;;4922156;29;20472;-76
2021/07/31 10:04:04;;;;;;;1.60;1.27;;;23.30;99.90;;;;;;4921969;29;20970;-76
2021/07/31 10:06:32;;;;;;;2.80;1.30;;;23.30;99.90;;;;;;4922274;29;20745;-75
2021/07/31 10:09:04;;;;;;;1.43;1.20;;;23.40;99.90;;;;;;4921845;29;20461;-76
2021/07/31 10:11:33;;;;;;;8.03;1.30;;;23.40;99.90;;;;;;4921809;29;20848;-77
2021/07/31 10:14:00;;;;;;;3.13;1.10;;;23.40;99.90;;;;;;4921855;29;20976;-75
2021/07/31 10:16:27;;;;;;;1.50;1.23;;;23.30;99.90;;;;;;4921871;29;20470;-77
2021/07/31 10:19:02;;;;;;;3.80;1.13;;;23.30;99.90;;;;;;4922409;29;20461;-77
2021/07/31 10:21:31;;;;;;;7.03;1.20;;;23.50;99.90;;;;;;4922345;29;20500;-75
2021/07/31 10:24:02;;;;;;;3.83;1.30;;;23.60;99.90;;;;;;4921606;29;20461;-74
2021/07/31 10:26:30;;;;;;;2.10;1.17;;;23.60;99.90;;;;;;4921883;29;20456;-76
2021/07/31 10:29:19;;;;;;;4.50;1.60;;;23.50;99.90;;;;;;4921379;29;20949;-76
2021/07/31 10:31:46;;;;;;;3.60;1.07;;;23.50;99.90;;;;;;4921117;29;20970;-75
2021/07/31 10:34:49;;;;;;;2.17;1.20;;;23.40;99.90;;;;;;4921457;29;20461;-76
2021/07/31 10:37:45;;;;;;;1.73;1.03;;;23.30;99.90;;;;;;4921122;29;20476;-75
2021/07/31 10:40:34;;;;;;;2.23;1.10;;;23.30;99.90;;;;;;4922057;29;20457;-74
2021/07/31 10:43:05;;;;;;;2.57;1.20;;;23.40;99.90;;;;;;4920887;29;20461;-74
2021/07/31 10:45:33;;;;;;;1.90;1.00;;;23.30;99.90;;;;;;4921026;29;20465;-76
2021/07/31 10:48:00;;;;;;;2.73;1.40;;;23.20;99.90;;;;;;4921086;29;20461;-75
2021/07/31 10:50:40;;;;;;;3.90;1.33;;;23.10;99.90;;;;;;4921362;29;20931;-77
2021/07/31 10:53:09;;;;;;;1.83;1.10;;;23.10;99.90;;;;;;4921210;29;20445;-75
2021/07/31 10:56:01;;;;;;;1.63;1.10;;;22.90;99.90;;;;;;4921515;29;20465;-78
2021/07/31 10:58:30;;;;;;;2.87;1.20;;;22.80;99.90;;;;;;4921004;29;20923;-76
2021/07/31 11:01:22;;;;;;;3.87;1.20;;;22.80;99.90;;;;;;4921229;29;20466;-74
2021/07/31 11:03:49;;;;;;;1.97;1.40;;;22.70;99.90;;;;;;4921150;29;20446;-75
2021/07/31 11:06:18;;;;;;;3.50;1.10;;;22.60;99.90;;;;;;4921310;29;20461;-77
2021/07/31 11:09:16;;;;;;;7.93;1.40;;;22.60;99.90;;;;;;4921114;29;20789;-77
2021/07/31 11:11:43;;;;;;;4.23;1.27;;;22.80;99.90;;;;;;4921030;29;20474;-75
2021/07/31 11:14:10;;;;;;;2.83;1.00;;;23.10;99.90;;;;;;4920657;29;20489;-78
2021/07/31 11:16:37;;;;;;;3.03;0.90;;;23.10;99.90;;;;;;4921569;29;20466;-75
2021/07/31 11:19:04;;;;;;;2.03;1.00;;;23.10;99.90;;;;;;4921267;29;20476;-74
2021/07/31 11:21:35;;;;;;;1.20;1.00;;;23.10;99.90;;;;;;4921343;29;20458;-75
2021/07/31 11:24:04;;;;;;;2.63;1.27;;;23.20;99.90;;;;;;4921735;29;20465;-78
2021/07/31 11:26:34;;;;;;;1.60;1.13;;;23.30;99.90;;;;;;4922138;29;20469;-77
2021/07/31 11:29:02;;;;;;;4.40;1.33;;;23.40;99.90;;;;;;4921771;29;20476;-76
2021/07/31 11:31:28;;;;;;;3.60;1.07;;;23.50;99.90;;;;;;4920931;29;20489;-78
2021/07/31 11:34:01;;;;;;;1.80;0.90;;;23.40;99.90;;;;;;4920922;29;20802;-76
2021/07/31 11:36:28;;;;;;;2.27;0.90;;;23.30;99.90;;;;;;4920756;29;20482;-77
2021/07/31 11:38:56;;;;;;;2.23;1.13;;;23.30;99.90;;;;;;4920803;29;20469;-77
2021/07/31 11:41:23;;;;;;;2.47;0.90;;;23.50;99.90;;;;;;4920487;29;20466;-76
2021/07/31 11:43:52;;;;;;;2.53;1.00;;;23.70;99.90;;;;;;4920684;29;20465;-76
2021/07/31 11:46:30;;;;;;;1.93;1.20;;;23.80;99.90;;;;;;4920583;29;20466;-77
2021/07/31 11:48:58;;;;;;;1.43;1.03;;;23.70;99.90;;;;;;4920339;29;20450;-77
2021/07/31 11:51:24;;;;;;;3.30;1.70;;;23.60;99.90;;;;;;4920796;29;20485;-78
2021/07/31 11:53:52;;;;;;;3.50;1.07;;;23.50;99.90;;;;;;4919904;29;20461;-76
2021/07/31 11:56:22;;;;;;;2.20;1.20;;;23.40;99.90;;;;;;4919935;29;20465;-76
2021/07/31 11:58:50;;;;;;;1.30;1.00;;;23.40;99.90;;;;;;4919980;29;20517;-76
2021/07/31 12:01:18;;;;;;;2.53;1.10;;;23.60;99.90;;;;;;4919257;29;20461;-77
2021/07/31 12:03:46;;;;;;;3.70;1.10;;;23.80;99.90;;;;;;4919341;29;20918;-77
2021/07/31 12:06:37;;;;;;;3.10;1.10;;;24.20;99.90;;;;;;4919232;29;20541;-78
2021/07/31 12:09:06;;;;;;;5.17;1.10;;;24.20;99.90;;;;;;4919797;29;20461;-77
2021/07/31 12:11:39;;;;;;;2.37;1.00;;;24.20;99.90;;;;;;4919282;29;20497;-76
2021/07/31 12:14:34;;;;;;;3.37;1.07;;;24.30;99.90;;;;;;4919069;29;20489;-77
2021/07/31 12:17:19;;;;;;;4.93;1.00;;;25.00;99.90;;;;;;4919556;29;20802;-77
2021/07/31 12:19:47;;;;;;;3.10;1.13;;;25.80;99.90;;;;;;4919903;29;20460;-77
2021/07/31 12:22:16;;;;;;;3.17;1.37;;;26.00;99.90;;;;;;4919053;29;20926;-75
2021/07/31 12:24:43;;;;;;;3.10;1.00;;;25.20;99.90;;;;;;4919438;29;20466;-77
2021/07/31 12:27:11;;;;;;;6.40;1.00;;;24.40;99.90;;;;;;4919072;29;20462;-74
2021/07/31 12:29:40;;;;;;;3.10;0.90;;;24.10;99.90;;;;;;4918732;29;20466;-76
2021/07/31 12:32:23;;;;;;;1.87;0.93;;;23.80;99.90;;;;;;4918494;29;20960;-76
2021/07/31 12:34:50;;;;;;;1.43;0.90;;;23.90;99.90;;;;;;4919436;29;20512;-77
2021/07/31 12:37:17;;;;;;;1.23;1.03;;;24.20;99.90;;;;;;4919444;29;20776;-76
2021/07/31 12:39:44;;;;;;;2.43;1.10;;;24.20;99.90;;;;;;4918681;29;20465;-76
2021/07/31 12:42:15;;;;;;;1.13;0.90;;;24.30;99.90;;;;;;4918939;29;20788;-76
2021/07/31 12:44:41;;;;;;;1.77;1.00;;;24.60;99.90;;;;;;4919228;29;20450;-74
2021/07/31 12:47:10;;;;;;;1.47;0.90;;;24.80;99.90;;;;;;4918505;29;20461;-73
2021/07/31 12:49:37;;;;;;;1.27;0.80;;;24.90;99.90;;;;;;4918590;29;20857;-74
2021/07/31 12:52:06;;;;;;;1.23;0.90;;;25.10;99.90;;;;;;4918827;29;20799;-76